Time;durP1;ratioP1;P1;durP2;ratioP2;P2;SDS_P1;SDS_P2;PMS_P1;PMS_P2;Temp;Humidity;BMP_temperature;BMP_pressure;BME280_temperature;BME280_humidity;BME280_pressure;Samples;Min_cycle;Max_cycle;Signal;HPM_P1;HPM_P2
2024/01/01 00:01:44;;;;;;;11.02;1.30;;;23.60;99.90;;;;;;5131330;28;20201;-80
2024/01/01 00:04:15;;;;;;;8.80;1.30;;;23.60;99.90;;;;;;5130972;28;20196;-79
2024/01/01 00:06:47;;;;;;;4.57;1.15;;;23.50;99.90;;;;;;5130942;28;20559;-80
2024/01/01 00:09:18;;;;;;;9.15;1.25;;;23.60;99.90;;;;;;5130629;28;20225;-80
2024/01/01 00:11:49;;;;;;;6.05;1.30;;;23.70;99.90;;;;;;5129940;27;20236;-79
2024/01/01 00:14:20;;;;;;;4.97;1.10;;;23.70;99.90;;;;;;5116173;27;20194;-79
2024/01/01 00:16:51;;;;;;;4.43;1.25;;;23.70;99.90;;;;;;5130817;28;20194;-80
2024/01/01 00:19:21;;;;;;;3.47;1.08;;;23.60;99.90;;;;;;5130704;28;20194;-79
2024/01/01 00:21:54;;;;;;;5.85;1.20;;;23.70;99.90;;;;;;5131162;27;20198;-79
2024/01/01 00:24:25;;;;;;;6.03;1.30;;;23.70;99.90;;;;;;5134808;27;20193;-79
2024/01/01 00:26:55;;;;;;;6.72;1.15;;;23.70;99.90;;;;;;5134276;27;20727;-80
2024/01/01 00:29:26;;;;;;;6.00;1.02;;;23.70;99.90;;;;;;5134555;27;20244;-80
2024/01/01 00:31:57;;;;;;;4.13;1.20;;;23.70;99.90;;;;;;5133923;27;20190;-80
2024/01/01 00:34:28;;;;;;;5.07;0.80;;;23.70;99.90;;;;;;5134293;27;20284;-79
2024/01/01 00:37:01;;;;;;;5.43;1.30;;;23.80;99.90;;;;;;5130125;27;20202;-79
2024/01/01 00:39:31;;;;;;;9.55;1.30;;;23.90;99.90;;;;;;5115070;28;20684;-79
2024/01/01 00:42:02;;;;;;;6.50;1.40;;;24.00;99.90;;;;;;5154859;27;20217;-80
2024/01/01 00:44:33;;;;;;;5.05;1.10;;;24.10;99.90;;;;;;5144429;27;20197;-80
2024/01/01 00:47:04;;;;;;;5.05;1.17;;;24.10;99.90;;;;;;5145616;27;20198;-80
2024/01/01 00:49:35;;;;;;;4.63;1.60;;;24.10;99.90;;;;;;5134404;27;20217;-78
2024/01/01 00:52:08;;;;;;;4.45;1.25;;;24.20;99.90;;;;;;5134190;27;20201;-78
2024/01/01 00:54:39;;;;;;;5.78;1.33;;;24.30;99.90;;;;;;5135118;27;20193;-78
2024/01/01 00:57:09;;;;;;;6.75;1.40;;;24.30;99.90;;;;;;5133540;27;20194;-76
2024/01/01 00:59:40;;;;;;;4.85;1.15;;;24.40;99.90;;;;;;5124855;27;20282;-80
2024/01/01 01:02:11;;;;;;;11.18;1.58;;;24.30;99.90;;;;;;5128977;27;20248;-78
2024/01/01 01:04:45;;;;;;;5.55;1.15;;;24.30;99.90;;;;;;5131057;27;20190;-78
2024/01/01 01:07:18;;;;;;;8.65;1.70;;;24.30;99.90;;;;;;5132004;27;20267;-78
2024/01/01 01:09:49;;;;;;;7.35;1.38;;;24.30;99.90;;;;;;5124660;27;20348;-79
2024/01/01 01:12:19;;;;;;;4.47;1.13;;;24.30;99.90;;;;;;5125283;27;20209;-78
2024/01/01 01:14:50;;;;;;;6.07;1.27;;;24.40;99.90;;;;;;5144794;27;20714;-80
2024/01/01 01:17:21;;;;;;;5.75;1.23;;;24.40;99.90;;;;;;5130071;27;20206;-79
2024/01/01 01:19:52;;;;;;;3.47;0.93;;;24.50;99.90;;;;;;5133461;27;20201;-80
2024/01/01 01:22:24;;;;;;;7.80;1.30;;;24.40;99.90;;;;;;5128215;27;20694;-80
2024/01/01 01:24:55;;;;;;;6.65;1.38;;;24.30;99.90;;;;;;5122056;27;20209;-79
2024/01/01 01:27:26;;;;;;;6.38;1.48;;;24.10;99.90;;;;;;5117286;27;20189;-80
2024/01/01 01:29:57;;;;;;;6.00;1.25;;;24.10;99.90;;;;;;5133786;27;20221;-80
2024/01/01 01:32:27;;;;;;;6.00;1.27;;;24.10;99.90;;;;;;5131493;27;20541;-81
2024/01/01 01:34:58;;;;;;;8.60;1.70;;;24.10;99.90;;;;;;5130459;27;20193;-78
2024/01/01 01:37:31;;;;;;;3.63;1.20;;;24.00;99.90;;;;;;5121860;27;20545;-79
2024/01/01 01:40:02;;;;;;;6.35;1.45;;;24.00;99.90;;;;;;5122669;27;20225;-79
2024/01/01 01:42:32;;;;;;;6.72;1.63;;;24.10;99.90;;;;;;5146890;27;20465;-79
2024/01/01 01:45:03;;;;;;;5.20;1.38;;;23.90;99.90;;;;;;5131229;27;20209;-79
2024/01/01 01:47:34;;;;;;;5.68;1.27;;;23.90;99.90;;;;;;5127218;27;20656;-79
2024/01/01 01:50:06;;;;;;;5.47;1.25;;;23.90;99.90;;;;;;5127795;27;20223;-79
2024/01/01 01:52:40;;;;;;;5.70;1.38;;;23.80;99.90;;;;;;5121235;27;20191;-79
2024/01/01 01:55:12;;;;;;;4.88;1.27;;;23.70;99.90;;;;;;5125800;27;20186;-79
2024/01/01 01:57:43;;;;;;;5.25;1.40;;;23.70;99.90;;;;;;5124939;27;20214;-78
2024/01/01 02:00:15;;;;;;;6.57;1.67;;;23.70;99.90;;;;;;5136616;27;20665;-80
2024/01/01 02:02:47;;;;;;;4.72;0.98;;;23.60;99.90;;;;;;5112293;27;20218;-79
2024/01/01 02:05:18;;;;;;;4.85;1.55;;;23.70;99.90;;;;;;5125899;27;20200;-79
2024/01/01 02:07:51;;;;;;;6.53;1.35;;;23.70;99.90;;;;;;5130820;27;20575;-79
2024/01/01 02:10:21;;;;;;;7.32;1.50;;;23.70;99.90;;;;;;5130409;27;20237;-79
2024/01/01 02:12:53;;;;;;;6.97;1.67;;;23.90;99.90;;;;;;5140296;27;20189;-77
2024/01/01 02:15:24;;;;;;;5.90;1.40;;;23.90;99.90;;;;;;5135497;27;20193;-79
2024/01/01 02:17:54;;;;;;;5.82;1.73;;;24.00;99.90;;;;;;5132332;27;20612;-79
2024/01/01 02:20:25;;;;;;;6.82;1.15;;;24.10;99.90;;;;;;5133622;27;20197;-78
2024/01/01 02:22:59;;;;;;;8.45;1.52;;;24.00;99.90;;;;;;5134658;27;20194;-78
2024/01/01 02:25:30;;;;;;;4.60;1.35;;;24.10;99.90;;;;;;5133868;27;20192;-79
2024/01/01 02:28:01;;;;;;;4.15;1.17;;;24.00;99.90;;;;;;5119790;27;20653;-80
2024/01/01 02:30:31;;;;;;;5.40;1.60;;;24.00;99.90;;;;;;5147117;27;20312;-80
2024/01/01 02:33:07;;;;;;;8.85;1.42;;;24.00;99.90;;;;;;5125366;27;20273;-79
2024/01/01 02:35:39;;;;;;;6.43;1.40;;;24.20;99.90;;;;;;5132352;27;20193;-80
2024/01/01 02:38:11;;;;;;;7.13;1.83;;;24.40;99.90;;;;;;5128243;27;20243;-78
2024/01/01 02:40:42;;;;;;;7.28;1.60;;;24.60;99.90;;;;;;5116259;27;20195;-78
2024/01/01 02:43:13;;;;;;;6.35;1.67;;;24.70;99.90;;;;;;5128378;27;20203;-80
2024/01/01 02:45:44;;;;;;;7.15;1.50;;;24.60;99.90;;;;;;5128873;27;20664;-80
2024/01/01 02:48:14;;;;;;;4.72;1.30;;;24.60;99.90;;;;;;5114577;27;20600;-80
2024/01/01 02:50:45;;;;;;;5.47;1.20;;;24.60;99.90;;;;;;5123879;27;20224;-79
2024/01/01 02:53:18;;;;;;;6.60;1.33;;;24.70;99.90;;;;;;5133040;27;20194;-79
2024/01/01 02:55:49;;;;;;;4.47;1.17;;;24.80;99.90;;;;;;5132592;27;20281;-79
2024/01/01 02:58:19;;;;;;;6.05;1.50;;;24.70;99.90;;;;;;5132413;27;20197;-79
2024/01/01 03:00:50;;;;;;;5.25;1.17;;;24.70;99.90;;;;;;5131820;27;20197;-80
2024/01/01 03:03:22;;;;;;;7.47;1.48;;;24.60;99.90;;;;;;5132325;27;20198;-79
2024/01/01 03:05:52;;;;;;;6.28;1.35;;;24.50;99.90;;;;;;5145850;27;20189;-80
2024/01/01 03:08:25;;;;;;;5.53;1.38;;;24.50;99.90;;;;;;5134167;27;20209;-80
2024/01/01 03:10:56;;;;;;;7.57;1.38;;;24.50;99.90;;;;;;5117431;27;20287;-79
2024/01/01 03:13:27;;;;;;;6.30;1.33;;;24.50;99.90;;;;;;5124012;27;20219;-79
2024/01/01 03:15:57;;;;;;;6.50;1.40;;;24.50;99.90;;;;;;5131272;27;20198;-79
2024/01/01 03:18:28;;;;;;;6.88;1.77;;;24.50;99.90;;;;;;5131708;27;20224;-80
2024/01/01 03:20:59;;;;;;;7.05;1.70;;;24.60;99.90;;;;;;5140668;27;20224;-79
2024/01/01 03:23:31;;;;;;;5.22;1.30;;;24.60;99.90;;;;;;5132178;27;20197;-79
2024/01/01 03:26:02;;;;;;;6.40;1.30;;;24.60;99.90;;;;;;5130884;27;20588;-79
2024/01/01 03:28:33;;;;;;;7.65;1.17;;;24.60;99.90;;;;;;5131963;27;20201;-78
2024/01/01 03:31:04;;;;;;;8.27;1.40;;;24.50;99.90;;;;;;5131460;27;20230;-80
2024/01/01 03:33:37;;;;;;;8.45;1.60;;;24.40;99.90;;;;;;5131772;27;20204;-79
2024/01/01 03:36:08;;;;;;;6.90;1.40;;;24.40;99.90;;;;;;5130818;27;20649;-79
2024/01/01 03:38:41;;;;;;;6.10;1.30;;;24.40;99.90;;;;;;5125529;27;20219;-80
2024/01/01 03:41:12;;;;;;;6.05;1.63;;;24.30;99.90;;;;;;5121641;27;20202;-79
2024/01/01 03:43:43;;;;;;;3.90;1.08;;;24.40;99.90;;;;;;5124501;28;20272;-80
2024/01/01 03:46:14;;;;;;;5.85;1.40;;;24.30;99.90;;;;;;5131280;28;20655;-79
2024/01/01 03:48:45;;;;;;;7.07;1.15;;;24.30;99.90;;;;;;5118182;28;20216;-80
2024/01/01 03:51:15;;;;;;;4.60;1.33;;;24.30;99.90;;;;;;5128251;28;20221;-80
2024/01/01 03:53:48;;;;;;;6.13;1.17;;;24.40;99.90;;;;;;5132038;27;20197;-79
2024/01/01 03:56:19;;;;;;;3.40;1.08;;;24.50;99.90;;;;;;5130514;27;20292;-79
2024/01/01 03:58:49;;;;;;;4.40;1.00;;;24.70;99.90;;;;;;5124297;27;20688;-80
2024/01/01 04:01:22;;;;;;;8.18;1.20;;;24.70;99.90;;;;;;5129676;27;20221;-80
2024/01/01 04:03:55;;;;;;;7.65;1.80;;;24.70;99.90;;;;;;5134805;27;20227;-79
2024/01/01 04:06:26;;;;;;;6.47;1.25;;;24.70;99.90;;;;;;5123112;27;20660;-80
2024/01/01 04:08:58;;;;;;;7.03;1.40;;;24.60;99.90;;;;;;5121074;27;20644;-81
2024/01/01 04:11:29;;;;;;;5.90;1.10;;;24.70;99.90;;;;;;5127719;27;20576;-80
2024/01/01 04:14:00;;;;;;;10.38;1.63;;;24.50;99.90;;;;;;5127915;27;20217;-80
2024/01/01 04:16:30;;;;;;;7.75;1.40;;;24.60;99.90;;;;;;5128529;27;20191;-80
2024/01/01 04:19:01;;;;;;;7.63;1.40;;;24.50;99.90;;;;;;5115378;27;20218;-81
2024/01/01 04:21:32;;;;;;;7.93;1.70;;;24.60;99.90;;;;;;5122996;27;20222;-80
2024/01/01 04:24:05;;;;;;;7.18;1.40;;;24.60;99.90;;;;;;5122391;27;20214;-80
2024/01/01 04:26:35;;;;;;;6.32;1.23;;;24.60;99.90;;;;;;5124255;27;20206;-81
2024/01/01 04:29:06;;;;;;;9.18;1.50;;;24.70;99.90;;;;;;5134694;27;20220;-81
2024/01/01 04:31:37;;;;;;;4.93;1.17;;;24.70;99.90;;;;;;5116963;27;20500;-80
2024/01/01 04:34:08;;;;;;;8.07;1.63;;;24.70;99.90;;;;;;5123333;27;20202;-80
2024/01/01 04:36:39;;;;;;;7.70;1.67;;;24.80;99.90;;;;;;5134630;27;20190;-80
2024/01/01 04:39:11;;;;;;;5.53;1.25;;;24.80;99.90;;;;;;5134164;27;20186;-81
2024/01/01 04:41:42;;;;;;;7.55;1.33;;;24.80;99.90;;;;;;5133838;27;20736;-80
2024/01/01 04:44:13;;;;;;;9.68;1.50;;;24.80;99.90;;;;;;5139115;27;20194;-81
2024/01/01 04:46:43;;;;;;;8.35;1.20;;;24.90;99.90;;;;;;5138717;27;20210;-80
2024/01/01 04:49:14;;;;;;;7.43;1.50;;;24.90;99.90;;;;;;5126172;27;20234;-80
2024/01/01 04:51:45;;;;;;;5.32;1.13;;;24.90;99.90;;;;;;5127718;27;20218;-82
2024/01/01 04:54:18;;;;;;;7.03;1.30;;;24.80;99.90;;;;;;5130282;27;20217;-80
2024/01/01 04:56:48;;;;;;;155.00;6.88;;;24.90;99.90;;;;;;5121213;27;20210;-81
2024/01/01 04:59:19;;;;;;;1300.55;70.60;;;24.90;99.90;;;;;;5130247;27;20201;-80
2024/01/01 05:01:50;;;;;;;1009.47;51.58;;;24.90;99.90;;;;;;5117022;27;20194;-81
2024/01/01 05:04:22;;;;;;;296.42;13.57;;;24.90;99.90;;;;;;5130882;27;20194;-81
2024/01/01 05:06:52;;;;;;;573.90;21.52;;;24.90;99.90;;;;;;5127274;27;20194;-81
2024/01/01 05:09:25;;;;;;;265.98;10.32;;;24.90;99.90;;;;;;5122421;27;20221;-81
2024/01/01 05:11:56;;;;;;;123.13;6.90;;;24.90;99.90;;;;;;5116092;27;20211;-81
2024/01/01 05:14:27;;;;;;;20.42;2.45;;;24.90;99.90;;;;;;5103398;28;20197;-80
2024/01/01 05:16:57;;;;;;;14.25;2.38;;;24.90;99.90;;;;;;5113343;27;20246;-81
2024/01/01 05:19:28;;;;;;;80.55;5.78;;;24.90;99.90;;;;;;5092826;28;20701;-80
2024/01/01 05:21:59;;;;;;;27.73;3.05;;;24.90;99.90;;;;;;5107816;27;20191;-80
2024/01/01 05:24:31;;;;;;;40.60;3.45;;;24.90;99.90;;;;;;5117602;27;20218;-81
2024/01/01 05:27:03;;;;;;;10.93;1.60;;;24.90;99.90;;;;;;5128728;27;20214;-82
2024/01/01 05:29:34;;;;;;;42.45;2.60;;;24.80;99.90;;;;;;5131637;27;20194;-81
2024/01/01 05:32:05;;;;;;;9.65;1.67;;;24.60;99.90;;;;;;5107432;28;20226;-80
2024/01/01 05:34:36;;;;;;;15.20;2.53;;;24.30;99.90;;;;;;5111022;27;20197;-81
2024/01/01 05:37:07;;;;;;;10.43;1.92;;;24.20;99.90;;;;;;5121641;27;20271;-81
2024/01/01 05:39:39;;;;;;;8.02;1.73;;;24.10;99.90;;;;;;5109619;28;20195;-82
2024/01/01 05:42:10;;;;;;;10.80;1.55;;;24.10;99.90;;;;;;5112548;28;20197;-81
2024/01/01 05:44:41;;;;;;;7.80;1.48;;;24.00;99.90;;;;;;5114864;28;20193;-82
2024/01/01 05:47:12;;;;;;;9.32;1.55;;;24.10;99.90;;;;;;5113772;27;20672;-81
2024/01/01 05:49:42;;;;;;;10.88;1.70;;;24.00;99.90;;;;;;5114090;27;20282;-81
2024/01/01 05:52:14;;;;;;;10.40;2.00;;;24.00;99.90;;;;;;5127620;27;20721;-82
2024/01/01 05:54:46;;;;;;;5.78;1.25;;;24.00;99.90;;;;;;5112103;27;20217;-82
2024/01/01 05:57:17;;;;;;;7.38;1.70;;;24.10;99.90;;;;;;5116603;27;20219;-82
2024/01/01 05:59:48;;;;;;;7.50;1.33;;;24.20;99.90;;;;;;5120919;27;20318;-82
2024/01/01 06:02:19;;;;;;;10.30;1.50;;;24.20;99.90;;;;;;5108419;27;20309;-80
2024/01/01 06:04:49;;;;;;;11.25;2.13;;;24.30;99.90;;;;;;5112835;27;20206;-80
2024/01/01 06:07:20;;;;;;;7.43;1.50;;;24.40;99.90;;;;;;5113205;27;20210;-79
2024/01/01 06:09:53;;;;;;;7.97;1.60;;;24.40;99.90;;;;;;5118710;27;20244;-80
2024/01/01 06:12:24;;;;;;;13.95;2.25;;;24.50;99.90;;;;;;5135963;27;20312;-80
2024/01/01 06:14:54;;;;;;;9.45;1.90;;;24.50;99.90;;;;;;5136105;27;20282;-81
2024/01/01 06:17:25;;;;;;;7.95;1.90;;;24.40;99.90;;;;;;5143873;27;20255;-80
2024/01/01 06:19:56;;;;;;;8.93;1.88;;;24.50;99.90;;;;;;5129965;27;20572;-82
2024/01/01 06:22:27;;;;;;;9.18;1.65;;;24.50;99.90;;;;;;5132152;27;20193;-80
2024/01/01 06:25:00;;;;;;;9.63;1.60;;;24.50;99.90;;;;;;5121251;27;20198;-81
2024/01/01 06:27:31;;;;;;;7.55;1.80;;;24.50;99.90;;;;;;5119700;27;20205;-81
2024/01/01 06:30:01;;;;;;;7.13;1.63;;;24.50;99.90;;;;;;5132478;27;20722;-81
2024/01/01 06:32:32;;;;;;;13.88;1.80;;;24.50;99.90;;;;;;5140673;27;20221;-81
2024/01/01 06:35:03;;;;;;;10.30;2.08;;;24.50;99.90;;;;;;5142640;27;20217;-81
2024/01/01 06:37:34;;;;;;;9.23;1.73;;;24.60;99.90;;;;;;5128711;27;20277;-81
2024/01/01 06:40:07;;;;;;;8.85;1.75;;;24.90;99.90;;;;;;5138844;27;20191;-81
2024/01/01 06:42:37;;;;;;;9.77;2.22;;;25.30;99.90;;;;;;5128171;27;20301;-80
2024/01/01 06:45:10;;;;;;;9.20;1.92;;;25.40;99.90;;;;;;5120322;27;20218;-84
2024/01/01 06:47:41;;;;;;;8.20;1.65;;;25.30;99.90;;;;;;5124576;27;20220;-84
2024/01/01 06:50:12;;;;;;;11.23;1.80;;;25.20;99.90;;;;;;5129175;27;20189;-82
2024/01/01 06:52:43;;;;;;;10.73;2.25;;;25.10;99.90;;;;;;5143934;27;20263;-83
2024/01/01 06:55:18;;;;;;;11.07;2.10;;;25.00;99.90;;;;;;5131782;27;20284;-84
2024/01/01 06:57:49;;;;;;;12.75;2.13;;;24.90;99.90;;;;;;5133495;27;20197;-82
2024/01/01 07:00:20;;;;;;;9.93;2.00;;;24.90;99.90;;;;;;5122009;27;20211;-83
2024/01/01 07:02:51;;;;;;;6.95;1.83;;;24.80;99.90;;;;;;5117395;27;20190;-82
2024/01/01 07:05:24;;;;;;;7.13;1.63;;;24.80;99.90;;;;;;5132622;27;20218;-82
2024/01/01 07:07:54;;;;;;;9.68;1.75;;;24.70;99.90;;;;;;5134525;27;20193;-83
2024/01/01 07:10:27;;;;;;;11.55;2.25;;;24.60;99.90;;;;;;5132546;27;20237;-82
2024/01/01 07:12:58;;;;;;;8.70;2.00;;;24.60;99.90;;;;;;5137317;27;20744;-82
2024/01/01 07:15:29;;;;;;;10.82;1.90;;;24.60;99.90;;;;;;5131850;27;20190;-82
2024/01/01 07:18:00;;;;;;;9.77;1.75;;;24.60;99.90;;;;;;5136701;27;20196;-82
2024/01/01 07:20:30;;;;;;;6.57;1.90;;;24.50;99.90;;;;;;5146532;27;20635;-82
2024/01/01 07:23:01;;;;;;;7.63;1.65;;;24.50;99.90;;;;;;5135389;27;20194;-81
2024/01/01 07:25:34;;;;;;;10.43;2.05;;;24.50;99.90;;;;;;5130629;27;20193;-82
2024/01/01 07:28:05;;;;;;;6.32;1.50;;;24.50;99.90;;;;;;5130874;27;20648;-82
2024/01/01 07:30:35;;;;;;;9.27;2.00;;;24.50;99.90;;;;;;5129613;27;20196;-82
2024/01/01 07:33:07;;;;;;;8.35;1.70;;;24.50;99.90;;;;;;5127124;27;20218;-82
2024/01/01 07:35:37;;;;;;;8.77;1.85;;;24.40;99.90;;;;;;5129776;27;20215;-82
2024/01/01 07:38:08;;;;;;;13.85;2.10;;;24.40;99.90;;;;;;5127884;27;20195;-83
2024/01/01 07:40:41;;;;;;;7.43;1.83;;;24.40;99.90;;;;;;5127165;27;20221;-81
2024/01/01 07:43:12;;;;;;;11.52;2.20;;;24.40;99.90;;;;;;5133005;27;20182;-82
2024/01/01 07:45:42;;;;;;;9.50;2.05;;;24.30;99.90;;;;;;5131166;28;20781;-82
2024/01/01 07:48:13;;;;;;;8.55;1.70;;;24.40;99.90;;;;;;5134698;27;20186;-82
2024/01/01 07:50:44;;;;;;;12.48;2.22;;;24.30;99.90;;;;;;5134083;27;20210;-82
2024/01/01 07:53:15;;;;;;;13.57;2.17;;;24.30;99.90;;;;;;5134223;27;20236;-81
2024/01/01 07:55:48;;;;;;;10.75;1.95;;;24.30;99.90;;;;;;5136222;27;20588;-81
2024/01/01 07:58:19;;;;;;;14.07;2.45;;;24.30;99.90;;;;;;5134262;27;20267;-81
2024/01/01 08:00:50;;;;;;;12.05;2.50;;;24.30;99.90;;;;;;5130604;27;20233;-82
2024/01/01 08:03:21;;;;;;;10.40;2.00;;;24.30;99.90;;;;;;5130970;28;20271;-82
2024/01/01 08:05:52;;;;;;;10.18;2.88;;;24.30;99.90;;;;;;5120028;27;20619;-82
2024/01/01 08:08:22;;;;;;;10.85;3.15;;;24.30;99.90;;;;;;5144604;27;20217;-82
2024/01/01 08:10:55;;;;;;;8.27;2.30;;;24.30;99.90;;;;;;5143310;27;20717;-85
2024/01/01 08:13:26;;;;;;;8.55;2.13;;;24.30;99.90;;;;;;5131267;27;20221;-85
2024/01/01 08:15:57;;;;;;;11.32;2.60;;;24.30;99.90;;;;;;5135903;28;20245;-82
2024/01/01 08:18:27;;;;;;;11.63;2.13;;;24.30;99.90;;;;;;5152822;28;20214;-82
2024/01/01 08:20:58;;;;;;;7.95;2.03;;;24.30;99.90;;;;;;5151035;28;20213;-84
2024/01/01 08:23:29;;;;;;;10.48;2.25;;;24.20;99.90;;;;;;5127629;28;20194;-84
2024/01/01 08:26:02;;;;;;;12.55;2.97;;;24.30;99.90;;;;;;5127251;27;20202;-83
2024/01/01 08:28:33;;;;;;;11.38;2.28;;;24.30;99.90;;;;;;5128616;27;20198;-83
2024/01/01 08:31:04;;;;;;;8.27;2.22;;;24.30;99.90;;;;;;5130998;27;20194;-83
2024/01/01 08:33:35;;;;;;;9.13;2.03;;;24.30;99.90;;;;;;5136018;27;20304;-83
2024/01/01 08:36:06;;;;;;;8.80;1.77;;;24.20;99.90;;;;;;5135467;27;20204;-82
2024/01/01 08:38:37;;;;;;;9.50;2.13;;;24.20;99.90;;;;;;5132069;28;20188;-82
2024/01/01 08:41:10;;;;;;;14.32;2.42;;;24.20;99.90;;;;;;5133041;27;20224;-85
2024/01/01 08:43:40;;;;;;;12.50;2.15;;;24.20;99.90;;;;;;5154448;27;20197;-84
2024/01/01 08:46:13;;;;;;;12.75;2.05;;;24.20;99.90;;;;;;5114096;27;20243;-85
2024/01/01 08:48:44;;;;;;;9.98;2.40;;;24.20;99.90;;;;;;5136011;27;20198;-84
2024/01/01 08:51:15;;;;;;;12.15;2.70;;;24.10;99.90;;;;;;5133353;27;20198;-85
2024/01/01 08:53:45;;;;;;;13.63;2.40;;;24.10;99.90;;;;;;5133524;27;20236;-84
2024/01/01 08:56:18;;;;;;;9.93;2.63;;;24.10;99.90;;;;;;5131438;27;20619;-84
2024/01/01 08:58:49;;;;;;;8.10;1.95;;;24.10;99.90;;;;;;5128538;27;20199;-85
2024/01/01 09:01:21;;;;;;;11.63;2.08;;;24.10;99.90;;;;;;5131918;27;20243;-85
2024/01/01 09:03:52;;;;;;;9.90;1.80;;;24.10;99.90;;;;;;5135432;27;20285;-84
2024/01/01 09:06:24;;;;;;;8.45;2.03;;;24.10;99.90;;;;;;5132604;27;20190;-85
2024/01/01 09:08:55;;;;;;;12.73;2.25;;;24.10;99.90;;;;;;5134837;27;20193;-86
2024/01/01 09:11:27;;;;;;;12.77;2.50;;;24.10;99.90;;;;;;5115394;27;20218;-85
2024/01/01 09:14:00;;;;;;;11.48;2.55;;;24.00;99.90;;;;;;5147249;27;20274;-88
2024/01/01 09:16:31;;;;;;;12.45;2.28;;;24.00;99.90;;;;;;5116818;28;20242;-84
2024/01/01 09:19:04;;;;;;;10.23;2.30;;;24.10;99.90;;;;;;5123384;27;20281;-84
2024/01/01 09:21:35;;;;;;;12.60;2.97;;;24.00;99.90;;;;;;5135654;27;20239;-84
2024/01/01 09:24:06;;;;;;;15.73;2.55;;;24.00;99.90;;;;;;5132492;27;20201;-84
2024/01/01 09:26:39;;;;;;;10.70;2.30;;;24.00;99.90;;;;;;5136822;27;20194;-82
2024/01/01 09:29:10;;;;;;;10.15;2.10;;;24.00;99.90;;;;;;5136779;27;20195;-84
2024/01/01 09:31:41;;;;;;;8.00;1.75;;;24.00;99.90;;;;;;5148173;27;20265;-82
2024/01/01 09:34:12;;;;;;;10.70;2.10;;;24.00;99.90;;;;;;5138776;27;20206;-82
2024/01/01 09:36:43;;;;;;;12.85;2.00;;;24.10;99.90;;;;;;5114799;28;20277;-84
2024/01/01 09:39:14;;;;;;;16.40;2.65;;;24.10;99.90;;;;;;5126722;27;20202;-81
2024/01/01 09:41:48;;;;;;;12.93;2.92;;;24.00;99.90;;;;;;5128482;27;20186;-84
2024/01/01 09:44:20;;;;;;;14.02;2.42;;;24.10;99.90;;;;;;5133867;27;20194;-84
2024/01/01 09:46:51;;;;;;;11.85;1.85;;;24.00;99.90;;;;;;5133497;27;20208;-83
2024/01/01 09:49:24;;;;;;;8.88;2.00;;;24.00;99.90;;;;;;5134056;27;20288;-82
2024/01/01 09:51:58;;;;;;;12.85;2.25;;;24.00;99.90;;;;;;5144687;27;20655;-83
2024/01/01 09:54:29;;;;;;;9.40;1.98;;;24.00;99.90;;;;;;5132584;27;20198;-82
2024/01/01 09:57:02;;;;;;;8.35;2.20;;;24.00;99.90;;;;;;5133227;27;20211;-81
2024/01/01 09:59:40;;;;;;;12.70;2.30;;;24.00;99.90;;;;;;5130698;27;20194;-82
2024/01/01 10:02:11;;;;;;;13.10;2.25;;;24.00;99.90;;;;;;5134577;27;20285;-82
2024/01/01 10:04:42;;;;;;;12.50;2.25;;;23.90;99.90;;;;;;5130120;27;20202;-81
2024/01/01 10:07:14;;;;;;;20.33;2.90;;;24.00;99.90;;;;;;5126171;27;20201;-81
2024/01/01 10:09:50;;;;;;;9.25;2.13;;;24.00;99.90;;;;;;5129973;27;20198;-84
2024/01/01 10:12:27;;;;;;;11.35;2.28;;;24.00;99.90;;;;;;5133226;27;20343;-82
2024/01/01 10:15:01;;;;;;;8.95;2.05;;;24.00;99.90;;;;;;5129757;27;20204;-81
2024/01/01 10:17:32;;;;;;;13.45;2.33;;;24.00;99.90;;;;;;5135226;27;20721;-82
2024/01/01 10:20:05;;;;;;;13.05;2.38;;;24.00;99.90;;;;;;5141914;27;20643;-81
2024/01/01 10:22:36;;;;;;;10.10;2.35;;;24.00;99.90;;;;;;5142016;27;20194;-81
2024/01/01 10:25:17;;;;;;;12.82;2.60;;;24.00;99.90;;;;;;5143438;27;20202;-82
2024/01/01 10:27:51;;;;;;;13.18;2.65;;;24.00;99.90;;;;;;5140759;27;20189;-84
2024/01/01 10:30:22;;;;;;;13.52;2.60;;;24.00;99.90;;;;;;5129446;27;20238;-85
2024/01/01 10:32:55;;;;;;;14.10;2.08;;;24.00;99.90;;;;;;5121630;27;20332;-83
2024/01/01 10:35:26;;;;;;;9.68;2.25;;;24.00;99.90;;;;;;5126483;27;20285;-82
2024/01/01 10:37:58;;;;;;;12.50;2.38;;;24.00;99.90;;;;;;5120045;27;20191;-84
2024/01/01 10:40:29;;;;;;;12.60;2.22;;;24.00;99.90;;;;;;5146742;27;20277;-82
2024/01/01 10:43:03;;;;;;;18.42;3.08;;;24.00;99.90;;;;;;5148105;27;20198;-83
2024/01/01 10:45:34;;;;;;;12.55;2.40;;;24.00;99.90;;;;;;5129472;27;20242;-82
2024/01/01 10:48:07;;;;;;;11.13;2.53;;;24.00;99.90;;;;;;5125446;27;20201;-83
2024/01/01 10:50:45;;;;;;;15.68;2.97;;;24.00;99.90;;;;;;5108788;27;20193;-83
2024/01/01 10:53:34;;;;;;;10.57;2.08;;;24.00;99.90;;;;;;5129016;27;20228;-84
2024/01/01 10:56:14;;;;;;;15.63;2.97;;;24.00;99.90;;;;;;5128896;27;20204;-84
2024/01/01 10:59:02;;;;;;;17.48;2.72;;;24.00;99.90;;;;;;5122447;27;20201;-82
2024/01/01 11:01:35;;;;;;;11.73;2.42;;;24.00;99.90;;;;;;5129859;27;20276;-82
2024/01/01 11:04:06;;;;;;;18.17;2.50;;;23.90;99.90;;;;;;5130710;27;20694;-84
2024/01/01 11:06:39;;;;;;;13.55;2.83;;;24.00;99.90;;;;;;5132351;27;20208;-84
2024/01/01 11:09:34;;;;;;;13.20;2.40;;;24.00;99.90;;;;;;5127802;27;20208;-81
2024/01/01 11:12:05;;;;;;;13.25;2.33;;;24.00;99.90;;;;;;5122550;27;20202;-84
2024/01/01 11:14:42;;;;;;;12.73;2.55;;;24.00;99.90;;;;;;5131904;27;20212;-84
2024/01/01 11:17:12;;;;;;;10.48;2.22;;;24.00;99.90;;;;;;5129216;27;20200;-84
2024/01/01 11:19:46;;;;;;;12.13;2.38;;;24.00;99.90;;;;;;5124928;27;20301;-86
2024/01/01 11:22:35;;;;;;;9.52;2.17;;;24.00;99.90;;;;;;5124500;27;20210;-83
2024/01/01 11:25:06;;;;;;;16.42;2.65;;;23.90;99.90;;;;;;5116129;27;20194;-83
2024/01/01 11:27:38;;;;;;;12.73;2.20;;;24.00;99.90;;;;;;5130487;27;20211;-82
2024/01/01 11:30:13;;;;;;;12.05;2.40;;;23.90;99.90;;;;;;5124458;27;20325;-82
2024/01/01 11:32:45;;;;;;;10.10;2.10;;;24.00;99.90;;;;;;5116643;27;20253;-85
2024/01/01 11:35:17;;;;;;;16.23;2.10;;;24.00;99.90;;;;;;5122653;27;20293;-87
2024/01/01 11:37:51;;;;;;;11.48;2.20;;;23.90;99.90;;;;;;5130700;27;20707;-89
2024/01/01 11:40:28;;;;;;;10.10;2.10;;;24.00;99.90;;;;;;5124283;27;20222;-85
2024/01/01 11:43:09;;;;;;;8.63;1.80;;;24.00;99.90;;;;;;5125649;27;20288;-84
2024/01/01 11:45:42;;;;;;;9.85;2.03;;;24.00;99.90;;;;;;5113428;27;20202;-85
2024/01/01 11:48:13;;;;;;;12.23;2.20;;;23.90;99.90;;;;;;5131240;28;20623;-84
2024/01/01 11:50:46;;;;;;;6.82;1.48;;;24.00;99.90;;;;;;5140854;27;20735;-84
2024/01/01 11:53:19;;;;;;;10.00;2.17;;;23.90;99.90;;;;;;5139914;28;20226;-83
2024/01/01 11:55:50;;;;;;;9.73;1.70;;;24.00;99.90;;;;;;5142937;28;20422;-84
2024/01/01 11:58:21;;;;;;;11.93;1.90;;;24.00;99.90;;;;;;5130051;28;20198;-84
2024/01/01 12:00:54;;;;;;;8.75;1.95;;;24.00;99.90;;;;;;5130596;27;20201;-83
2024/01/01 12:03:25;;;;;;;7.43;2.13;;;24.00;99.90;;;;;;5110738;28;20197;-82
2024/01/01 12:06:05;;;;;;;11.23;1.75;;;24.00;99.90;;;;;;5126290;27;20213;-86
2024/01/01 12:08:36;;;;;;;7.95;1.50;;;24.00;99.90;;;;;;5128234;28;20225;-85
2024/01/01 12:11:07;;;;;;;10.75;1.90;;;24.00;99.90;;;;;;5129907;28;20247;-85
2024/01/01 12:13:37;;;;;;;9.50;1.75;;;24.00;99.90;;;;;;5130368;28;20308;-82
2024/01/01 12:16:21;;;;;;;8.65;1.90;;;24.00;99.90;;;;;;5122519;27;20677;-80
2024/01/01 12:18:57;;;;;;;7.55;1.85;;;24.00;99.90;;;;;;5125267;27;20275;-83
2024/01/01 12:21:38;;;;;;;8.73;1.85;;;24.00;99.90;;;;;;5124887;27;20340;-84
2024/01/01 12:24:10;;;;;;;9.25;1.90;;;24.00;99.90;;;;;;5132497;27;20217;-86
2024/01/01 12:26:43;;;;;;;15.02;2.50;;;24.10;99.90;;;;;;5127499;27;20202;-84
2024/01/01 12:29:17;;;;;;;10.55;2.13;;;24.10;99.90;;;;;;5129992;27;20198;-83
2024/01/01 12:31:50;;;;;;;12.07;2.28;;;24.00;99.90;;;;;;5134456;27;20280;-84
2024/01/01 12:34:22;;;;;;;9.40;1.73;;;24.00;99.90;;;;;;5125863;27;20218;-84
2024/01/01 12:36:53;;;;;;;9.52;1.92;;;24.00;99.90;;;;;;5127198;27;20307;-84
2024/01/01 12:39:24;;;;;;;9.05;1.98;;;24.00;99.90;;;;;;5134912;27;20648;-83
2024/01/01 12:41:56;;;;;;;10.35;1.88;;;24.00;99.90;;;;;;5135485;27;20219;-84
2024/01/01 12:44:26;;;;;;;8.98;1.63;;;24.10;99.90;;;;;;5132988;27;20698;-84
2024/01/01 12:46:59;;;;;;;7.93;2.10;;;24.10;99.90;;;;;;5134342;27;20653;-84
2024/01/01 12:49:33;;;;;;;8.90;1.85;;;24.10;99.90;;;;;;5120388;27;20293;-82
2024/01/01 12:52:04;;;;;;;10.00;1.95;;;24.10;99.90;;;;;;5121805;27;20244;-81
2024/01/01 12:54:35;;;;;;;10.07;1.75;;;24.00;99.90;;;;;;5132125;27;20225;-82
2024/01/01 12:57:05;;;;;;;8.85;1.70;;;24.10;99.90;;;;;;5133348;27;20224;-82
2024/01/01 12:59:37;;;;;;;9.60;2.10;;;24.10;99.90;;;;;;5133785;27;20266;-81
2024/01/01 13:02:10;;;;;;;8.63;1.80;;;24.10;99.90;;;;;;5142782;27;20228;-83
2024/01/01 13:04:40;;;;;;;7.70;1.67;;;24.10;99.90;;;;;;5140419;27;20217;-82
2024/01/01 13:07:11;;;;;;;11.60;2.35;;;24.00;99.90;;;;;;5134195;27;20218;-83